sensor_id;sensor_type;location;lat;lon;timestamp;temperature;humidity
42841;DHT22;28491;46.898;7.660;2023-08-07T00:00:22;12.30;63.40
42841;DHT22;28491;46.898;7.660;2023-08-07T00:02:47;12.30;64.90
42841;DHT22;28491;46.898;7.660;2023-08-07T00:05:13;12.40;65.40
42841;DHT22;28491;46.898;7.660;2023-08-07T00:07:39;12.40;64.30
42841;DHT22;28491;46.898;7.660;2023-08-07T00:10:05;12.30;62.40
42841;DHT22;28491;46.898;7.660;2023-08-07T00:12:31;12.40;62.80
42841;DHT22;28491;46.898;7.660;2023-08-07T00:14:56;12.40;61.90
42841;DHT22;28491;46.898;7.660;2023-08-07T00:17:22;12.50;60.70
42841;DHT22;28491;46.898;7.660;2023-08-07T00:19:47;12.40;53.80
42841;DHT22;28491;46.898;7.660;2023-08-07T00:22:13;12.40;53.90
42841;DHT22;28491;46.898;7.660;2023-08-07T00:24:39;12.20;40.90
42841;DHT22;28491;46.898;7.660;2023-08-07T00:27:05;12.20;45.80
42841;DHT22;28491;46.898;7.660;2023-08-07T00:29:32;12.00;42.80
42841;DHT22;28491;46.898;7.660;2023-08-07T00:31:58;11.90;46.60
42841;DHT22;28491;46.898;7.660;2023-08-07T00:34:23;12.10;60.20
42841;DHT22;28491;46.898;7.660;2023-08-07T00:36:49;12.20;60.70
42841;DHT22;28491;46.898;7.660;2023-08-07T00:39:15;12.20;56.00
42841;DHT22;28491;46.898;7.660;2023-08-07T00:41:41;12.10;61.00
42841;DHT22;28491;46.898;7.660;2023-08-07T00:44:07;12.30;60.00
42841;DHT22;28491;46.898;7.660;2023-08-07T00:46:32;12.20;52.20
42841;DHT22;28491;46.898;7.660;2023-08-07T00:48:58;12.00;54.00
42841;DHT22;28491;46.898;7.660;2023-08-07T00:51:24;11.80;60.90
42841;DHT22;28491;46.898;7.660;2023-08-07T00:53:50;11.70;63.20
42841;DHT22;28491;46.898;7.660;2023-08-07T00:56:16;11.90;62.30
42841;DHT22;28491;46.898;7.660;2023-08-07T00:58:42;12.00;62.50
42841;DHT22;28491;46.898;7.660;2023-08-07T01:01:08;12.10;61.00
42841;DHT22;28491;46.898;7.660;2023-08-07T01:03:34;11.90;60.90
42841;DHT22;28491;46.898;7.660;2023-08-07T01:05:59;11.90;61.50
42841;DHT22;28491;46.898;7.660;2023-08-07T01:08:25;12.00;63.30
42841;DHT22;28491;46.898;7.660;2023-08-07T01:11:21;12.10;63.50
42841;DHT22;28491;46.898;7.660;2023-08-07T01:16:28;12.00;61.50
42841;DHT22;28491;46.898;7.660;2023-08-07T01:18:56;11.90;60.90
42841;DHT22;28491;46.898;7.660;2023-08-07T01:21:22;11.90;61.40
42841;DHT22;28491;46.898;7.660;2023-08-07T01:23:48;12.20;62.30
42841;DHT22;28491;46.898;7.660;2023-08-07T01:26:15;12.30;60.40
42841;DHT22;28491;46.898;7.660;2023-08-07T01:29:06;12.10;47.60
42841;DHT22;28491;46.898;7.660;2023-08-07T01:31:39;12.00;54.00
42841;DHT22;28491;46.898;7.660;2023-08-07T01:34:07;12.20;60.00
42841;DHT22;28491;46.898;7.660;2023-08-07T01:36:34;12.20;46.00
42841;DHT22;28491;46.898;7.660;2023-08-07T01:39:01;12.10;50.20
42841;DHT22;28491;46.898;7.660;2023-08-07T01:41:27;12.10;51.80
42841;DHT22;28491;46.898;7.660;2023-08-07T01:43:54;11.90;52.80
42841;DHT22;28491;46.898;7.660;2023-08-07T01:46:20;11.90;59.40
42841;DHT22;28491;46.898;7.660;2023-08-07T01:48:46;11.70;60.00
42841;DHT22;28491;46.898;7.660;2023-08-07T01:51:12;11.70;61.50
42841;DHT22;28491;46.898;7.660;2023-08-07T01:53:37;12.00;60.90
42841;DHT22;28491;46.898;7.660;2023-08-07T01:56:03;11.80;57.90
42841;DHT22;28491;46.898;7.660;2023-08-07T01:58:29;12.00;60.80
42841;DHT22;28491;46.898;7.660;2023-08-07T02:00:54;12.00;58.30
42841;DHT22;28491;46.898;7.660;2023-08-07T02:03:20;12.00;53.30
42841;DHT22;28491;46.898;7.660;2023-08-07T02:05:46;11.80;59.40
42841;DHT22;28491;46.898;7.660;2023-08-07T02:08:12;11.80;60.10
42841;DHT22;28491;46.898;7.660;2023-08-07T02:10:38;11.60;58.30
42841;DHT22;28491;46.898;7.660;2023-08-07T02:13:03;11.60;62.10
42841;DHT22;28491;46.898;7.660;2023-08-07T02:15:29;11.80;63.30
42841;DHT22;28491;46.898;7.660;2023-08-07T02:17:54;11.70;61.50
42841;DHT22;28491;46.898;7.660;2023-08-07T02:20:20;11.60;62.20
42841;DHT22;28491;46.898;7.660;2023-08-07T02:22:46;11.80;62.90
42841;DHT22;28491;46.898;7.660;2023-08-07T02:25:11;11.70;61.40
42841;DHT22;28491;46.898;7.660;2023-08-07T02:27:37;11.70;61.50
42841;DHT22;28491;46.898;7.660;2023-08-07T02:30:03;11.70;61.30
42841;DHT22;28491;46.898;7.660;2023-08-07T02:32:29;11.80;60.00
42841;DHT22;28491;46.898;7.660;2023-08-07T02:34:55;11.80;60.60
42841;DHT22;28491;46.898;7.660;2023-08-07T02:37:20;11.80;60.60
42841;DHT22;28491;46.898;7.660;2023-08-07T02:39:46;11.60;60.80
42841;DHT22;28491;46.898;7.660;2023-08-07T02:42:12;11.70;62.20
42841;DHT22;28491;46.898;7.660;2023-08-07T02:44:37;11.60;61.70
42841;DHT22;28491;46.898;7.660;2023-08-07T02:47:06;11.60;63.20
42841;DHT22;28491;46.898;7.660;2023-08-07T02:49:31;11.50;62.80
42841;DHT22;28491;46.898;7.660;2023-08-07T02:51:57;11.50;63.20
42841;DHT22;28491;46.898;7.660;2023-08-07T02:54:22;11.50;63.50
42841;DHT22;28491;46.898;7.660;2023-08-07T02:56:48;11.50;63.80
42841;DHT22;28491;46.898;7.660;2023-08-07T02:59:16;11.60;62.60
42841;DHT22;28491;46.898;7.660;2023-08-07T03:01:43;11.70;63.30
42841;DHT22;28491;46.898;7.660;2023-08-07T03:04:09;11.90;61.50
42841;DHT22;28491;46.898;7.660;2023-08-07T03:06:35;11.90;61.20
42841;DHT22;28491;46.898;7.660;2023-08-07T03:09:00;12.00;60.70
42841;DHT22;28491;46.898;7.660;2023-08-07T03:11:26;12.00;58.50
42841;DHT22;28491;46.898;7.660;2023-08-07T03:13:51;12.20;58.80
42841;DHT22;28491;46.898;7.660;2023-08-07T03:16:17;11.80;60.00
42841;DHT22;28491;46.898;7.660;2023-08-07T03:18:43;11.70;61.60
42841;DHT22;28491;46.898;7.660;2023-08-07T03:21:08;11.80;62.10
42841;DHT22;28491;46.898;7.660;2023-08-07T03:23:34;12.10;61.60
42841;DHT22;28491;46.898;7.660;2023-08-07T03:26:08;12.20;60.40
42841;DHT22;28491;46.898;7.660;2023-08-07T03:28:35;12.20;55.00
42841;DHT22;28491;46.898;7.660;2023-08-07T03:31:01;12.00;43.70
42841;DHT22;28491;46.898;7.660;2023-08-07T03:33:27;11.90;50.00
42841;DHT22;28491;46.898;7.660;2023-08-07T03:35:53;11.90;60.30
42841;DHT22;28491;46.898;7.660;2023-08-07T03:38:19;11.80;58.70
42841;DHT22;28491;46.898;7.660;2023-08-07T03:40:45;11.60;60.30
42841;DHT22;28491;46.898;7.660;2023-08-07T03:43:10;11.60;61.00
42841;DHT22;28491;46.898;7.660;2023-08-07T03:45:36;11.40;60.80
42841;DHT22;28491;46.898;7.660;2023-08-07T03:48:01;11.50;62.20
42841;DHT22;28491;46.898;7.660;2023-08-07T03:50:27;11.70;62.20
42841;DHT22;28491;46.898;7.660;2023-08-07T03:52:53;11.70;62.10
42841;DHT22;28491;46.898;7.660;2023-08-07T03:55:18;11.70;62.50
42841;DHT22;28491;46.898;7.660;2023-08-07T03:57:44;11.70;62.00
42841;DHT22;28491;46.898;7.660;2023-08-07T04:00:10;11.40;61.50
42841;DHT22;28491;46.898;7.660;2023-08-07T04:02:38;11.60;62.20
42841;DHT22;28491;46.898;7.660;2023-08-07T04:05:04;11.60;61.40
42841;DHT22;28491;46.898;7.660;2023-08-07T04:07:30;11.50;62.50
42841;DHT22;28491;46.898;7.660;2023-08-07T04:09:55;11.60;63.00
42841;DHT22;28491;46.898;7.660;2023-08-07T04:12:21;11.70;63.20
42841;DHT22;28491;46.898;7.660;2023-08-07T04:14:49;11.80;60.90
42841;DHT22;28491;46.898;7.660;2023-08-07T04:17:16;11.70;59.80
42841;DHT22;28491;46.898;7.660;2023-08-07T04:19:41;11.60;61.00
42841;DHT22;28491;46.898;7.660;2023-08-07T04:22:07;11.60;61.20
42841;DHT22;28491;46.898;7.660;2023-08-07T04:24:33;11.50;61.00
42841;DHT22;28491;46.898;7.660;2023-08-07T04:26:58;11.30;61.90
42841;DHT22;28491;46.898;7.660;2023-08-07T04:29:24;11.20;63.40
42841;DHT22;28491;46.898;7.660;2023-08-07T04:31:50;11.30;64.60
42841;DHT22;28491;46.898;7.660;2023-08-07T04:34:16;11.20;65.30
42841;DHT22;28491;46.898;7.660;2023-08-07T04:36:41;11.20;65.50
42841;DHT22;28491;46.898;7.660;2023-08-07T04:39:07;11.30;65.20
42841;DHT22;28491;46.898;7.660;2023-08-07T04:41:32;11.30;64.80
42841;DHT22;28491;46.898;7.660;2023-08-07T04:43:58;11.40;65.10
42841;DHT22;28491;46.898;7.660;2023-08-07T04:46:24;11.60;64.30
42841;DHT22;28491;46.898;7.660;2023-08-07T04:48:49;11.60;64.40
42841;DHT22;28491;46.898;7.660;2023-08-07T04:51:15;11.70;62.20
42841;DHT22;28491;46.898;7.660;2023-08-07T04:53:41;11.70;61.90
42841;DHT22;28491;46.898;7.660;2023-08-07T04:56:06;11.60;62.80
42841;DHT22;28491;46.898;7.660;2023-08-07T04:58:32;11.50;60.80
42841;DHT22;28491;46.898;7.660;2023-08-07T05:00:58;11.50;61.80
42841;DHT22;28491;46.898;7.660;2023-08-07T05:03:24;11.60;64.00
42841;DHT22;28491;46.898;7.660;2023-08-07T05:05:50;11.70;65.00
42841;DHT22;28491;46.898;7.660;2023-08-07T05:08:16;11.90;64.70
42841;DHT22;28491;46.898;7.660;2023-08-07T05:10:42;11.90;63.00
42841;DHT22;28491;46.898;7.660;2023-08-07T05:13:08;12.00;62.10
42841;DHT22;28491;46.898;7.660;2023-08-07T05:15:33;11.90;61.00
42841;DHT22;28491;46.898;7.660;2023-08-07T05:17:59;11.80;60.40
42841;DHT22;28491;46.898;7.660;2023-08-07T05:20:25;11.90;62.60
42841;DHT22;28491;46.898;7.660;2023-08-07T05:22:50;12.10;61.30
42841;DHT22;28491;46.898;7.660;2023-08-07T05:25:16;12.10;61.70
42841;DHT22;28491;46.898;7.660;2023-08-07T05:27:43;12.00;60.90
42841;DHT22;28491;46.898;7.660;2023-08-07T05:30:09;11.90;61.60
42841;DHT22;28491;46.898;7.660;2023-08-07T05:32:35;11.70;60.10
42841;DHT22;28491;46.898;7.660;2023-08-07T05:35:07;11.70;54.40
42841;DHT22;28491;46.898;7.660;2023-08-07T05:37:33;11.60;48.70
42841;DHT22;28491;46.898;7.660;2023-08-07T05:39:58;11.60;39.20
42841;DHT22;28491;46.898;7.660;2023-08-07T05:42:24;11.50;38.10
42841;DHT22;28491;46.898;7.660;2023-08-07T05:44:50;11.60;31.80
42841;DHT22;28491;46.898;7.660;2023-08-07T05:47:15;11.50;24.90
42841;DHT22;28491;46.898;7.660;2023-08-07T05:49:41;11.60;38.90
42841;DHT22;28491;46.898;7.660;2023-08-07T05:52:07;11.70;42.00
42841;DHT22;28491;46.898;7.660;2023-08-07T05:54:33;11.70;41.80
42841;DHT22;28491;46.898;7.660;2023-08-07T05:56:58;11.80;47.00
42841;DHT22;28491;46.898;7.660;2023-08-07T05:59:24;11.90;45.00
42841;DHT22;28491;46.898;7.660;2023-08-07T06:01:49;11.90;46.90
42841;DHT22;28491;46.898;7.660;2023-08-07T06:04:16;11.90;43.90
42841;DHT22;28491;46.898;7.660;2023-08-07T06:06:41;11.80;43.20
42841;DHT22;28491;46.898;7.660;2023-08-07T06:09:08;11.80;56.80
42841;DHT22;28491;46.898;7.660;2023-08-07T06:11:33;11.80;59.50
42841;DHT22;28491;46.898;7.660;2023-08-07T06:13:59;12.00;59.60
42841;DHT22;28491;46.898;7.660;2023-08-07T06:16:25;12.00;59.50
42841;DHT22;28491;46.898;7.660;2023-08-07T06:18:50;12.00;59.60
42841;DHT22;28491;46.898;7.660;2023-08-07T06:21:16;11.90;44.80
42841;DHT22;28491;46.898;7.660;2023-08-07T06:23:41;12.00;47.80
42841;DHT22;28491;46.898;7.660;2023-08-07T06:26:07;11.90;50.10
42841;DHT22;28491;46.898;7.660;2023-08-07T06:28:34;12.00;50.30
42841;DHT22;28491;46.898;7.660;2023-08-07T06:31:06;12.00;47.10
42841;DHT22;28491;46.898;7.660;2023-08-07T06:33:33;12.10;50.70
42841;DHT22;28491;46.898;7.660;2023-08-07T06:36:00;12.10;53.30
42841;DHT22;28491;46.898;7.660;2023-08-07T06:38:26;12.10;53.60
42841;DHT22;28491;46.898;7.660;2023-08-07T06:40:52;12.20;57.20
42841;DHT22;28491;46.898;7.660;2023-08-07T06:43:17;12.30;59.00
42841;DHT22;28491;46.898;7.660;2023-08-07T06:45:43;12.20;53.40
42841;DHT22;28491;46.898;7.660;2023-08-07T06:48:09;12.20;46.20
42841;DHT22;28491;46.898;7.660;2023-08-07T06:50:34;12.20;42.60
42841;DHT22;28491;46.898;7.660;2023-08-07T06:53:01;12.20;32.90
42841;DHT22;28491;46.898;7.660;2023-08-07T06:55:27;12.20;26.50
42841;DHT22;28491;46.898;7.660;2023-08-07T06:57:52;12.10;28.70
42841;DHT22;28491;46.898;7.660;2023-08-07T07:00:18;12.20;39.10
42841;DHT22;28491;46.898;7.660;2023-08-07T07:02:44;12.20;28.20
42841;DHT22;28491;46.898;7.660;2023-08-07T07:05:09;12.20;34.70
42841;DHT22;28491;46.898;7.660;2023-08-07T07:07:35;12.20;40.10
42841;DHT22;28491;46.898;7.660;2023-08-07T07:10:01;12.20;40.10
42841;DHT22;28491;46.898;7.660;2023-08-07T07:12:27;12.20;38.80
42841;DHT22;28491;46.898;7.660;2023-08-07T07:14:53;12.30;36.10
42841;DHT22;28491;46.898;7.660;2023-08-07T07:17:18;12.40;42.40
42841;DHT22;28491;46.898;7.660;2023-08-07T07:19:44;12.40;46.60
42841;DHT22;28491;46.898;7.660;2023-08-07T07:22:10;12.50;40.60
42841;DHT22;28491;46.898;7.660;2023-08-07T07:24:35;12.40;42.60
42841;DHT22;28491;46.898;7.660;2023-08-07T07:27:01;12.50;45.90
42841;DHT22;28491;46.898;7.660;2023-08-07T07:29:26;12.60;47.80
42841;DHT22;28491;46.898;7.660;2023-08-07T07:31:52;12.50;45.80
42841;DHT22;28491;46.898;7.660;2023-08-07T07:34:20;12.50;39.80
42841;DHT22;28491;46.898;7.660;2023-08-07T07:36:46;12.50;35.00
42841;DHT22;28491;46.898;7.660;2023-08-07T07:39:11;12.50;35.00
42841;DHT22;28491;46.898;7.660;2023-08-07T07:41:37;12.60;38.90
42841;DHT22;28491;46.898;7.660;2023-08-07T07:44:03;12.70;42.90
42841;DHT22;28491;46.898;7.660;2023-08-07T07:46:28;12.70;43.90
42841;DHT22;28491;46.898;7.660;2023-08-07T07:48:54;12.60;42.00
42841;DHT22;28491;46.898;7.660;2023-08-07T07:51:21;12.60;47.20
42841;DHT22;28491;46.898;7.660;2023-08-07T07:53:46;12.60;37.20
42841;DHT22;28491;46.898;7.660;2023-08-07T07:56:12;12.70;20.30
42841;DHT22;28491;46.898;7.660;2023-08-07T07:58:37;12.70;14.90
42841;DHT22;28491;46.898;7.660;2023-08-07T08:01:03;12.70;17.30
42841;DHT22;28491;46.898;7.660;2023-08-07T08:03:28;12.80;11.80
42841;DHT22;28491;46.898;7.660;2023-08-07T08:05:54;12.80;21.10
42841;DHT22;28491;46.898;7.660;2023-08-07T08:08:20;12.80;22.60
42841;DHT22;28491;46.898;7.660;2023-08-07T08:10:46;12.80;36.90
42841;DHT22;28491;46.898;7.660;2023-08-07T08:13:14;12.90;27.90
42841;DHT22;28491;46.898;7.660;2023-08-07T08:15:39;12.90;16.90
42841;DHT22;28491;46.898;7.660;2023-08-07T08:18:05;13.00;14.80
42841;DHT22;28491;46.898;7.660;2023-08-07T08:20:30;13.00;21.10
42841;DHT22;28491;46.898;7.660;2023-08-07T08:22:57;13.00;13.70
42841;DHT22;28491;46.898;7.660;2023-08-07T08:25:23;13.00;15.40
42841;DHT22;28491;46.898;7.660;2023-08-07T08:27:51;13.10;34.10
42841;DHT22;28491;46.898;7.660;2023-08-07T08:30:17;13.10;16.70
42841;DHT22;28491;46.898;7.660;2023-08-07T08:32:43;13.10;14.10
42841;DHT22;28491;46.898;7.660;2023-08-07T08:35:08;13.20;3.40
42841;DHT22;28491;46.898;7.660;2023-08-07T08:37:34;13.30;1.00
42841;DHT22;28491;46.898;7.660;2023-08-07T08:40:00;13.30;3.00
42841;DHT22;28491;46.898;7.660;2023-08-07T08:42:26;13.40;17.90
42841;DHT22;28491;46.898;7.660;2023-08-07T08:44:53;13.40;18.10
42841;DHT22;28491;46.898;7.660;2023-08-07T08:47:21;13.40;4.00
42841;DHT22;28491;46.898;7.660;2023-08-07T08:49:50;13.30;15.00
42841;DHT22;28491;46.898;7.660;2023-08-07T08:52:16;13.40;19.70
42841;DHT22;28491;46.898;7.660;2023-08-07T08:54:43;13.40;17.50
42841;DHT22;28491;46.898;7.660;2023-08-07T08:57:09;13.40;25.40
42841;DHT22;28491;46.898;7.660;2023-08-07T08:59:36;13.40;24.20
42841;DHT22;28491;46.898;7.660;2023-08-07T09:02:02;13.50;19.10
42841;DHT22;28491;46.898;7.660;2023-08-07T09:04:28;13.50;19.00
42841;DHT22;28491;46.898;7.660;2023-08-07T09:06:54;13.50;8.30
42841;DHT22;28491;46.898;7.660;2023-08-07T09:09:22;13.60;13.40
42841;DHT22;28491;46.898;7.660;2023-08-07T09:11:48;13.60;18.10
42841;DHT22;28491;46.898;7.660;2023-08-07T09:14:19;13.60;19.90
42841;DHT22;28491;46.898;7.660;2023-08-07T09:16:48;13.60;9.30
42841;DHT22;28491;46.898;7.660;2023-08-07T09:19:13;13.60;16.40
42841;DHT22;28491;46.898;7.660;2023-08-07T09:21:39;13.50;17.20
42841;DHT22;28491;46.898;7.660;2023-08-07T09:24:05;13.50;17.20
42841;DHT22;28491;46.898;7.660;2023-08-07T09:26:32;13.50;22.90
42841;DHT22;28491;46.898;7.660;2023-08-07T09:28:58;13.50;37.30
42841;DHT22;28491;46.898;7.660;2023-08-07T09:31:24;13.50;32.00
42841;DHT22;28491;46.898;7.660;2023-08-07T09:33:52;13.40;24.20
42841;DHT22;28491;46.898;7.660;2023-08-07T09:36:17;13.40;24.80
42841;DHT22;28491;46.898;7.660;2023-08-07T09:38:49;13.40;12.90
42841;DHT22;28491;46.898;7.660;2023-08-07T09:41:18;13.50;19.80
42841;DHT22;28491;46.898;7.660;2023-08-07T09:43:44;13.60;25.80
42841;DHT22;28491;46.898;7.660;2023-08-07T09:46:10;13.60;32.40
42841;DHT22;28491;46.898;7.660;2023-08-07T09:48:40;13.60;18.80
42841;DHT22;28491;46.898;7.660;2023-08-07T09:51:06;13.60;10.80
42841;DHT22;28491;46.898;7.660;2023-08-07T09:53:32;13.60;15.50
42841;DHT22;28491;46.898;7.660;2023-08-07T09:55:58;13.70;22.40
42841;DHT22;28491;46.898;7.660;2023-08-07T09:58:24;13.60;13.60
42841;DHT22;28491;46.898;7.660;2023-08-07T10:00:50;13.70;21.00
42841;DHT22;28491;46.898;7.660;2023-08-07T10:03:19;13.80;14.10
42841;DHT22;28491;46.898;7.660;2023-08-07T10:05:45;13.80;4.90
42841;DHT22;28491;46.898;7.660;2023-08-07T10:08:11;13.80;12.90
42841;DHT22;28491;46.898;7.660;2023-08-07T10:10:38;13.80;3.40
42841;DHT22;28491;46.898;7.660;2023-08-07T10:13:04;13.90;3.20
42841;DHT22;28491;46.898;7.660;2023-08-07T10:15:31;13.90;1.00
42841;DHT22;28491;46.898;7.660;2023-08-07T10:17:58;14.00;1.00
42841;DHT22;28491;46.898;7.660;2023-08-07T10:20:27;14.10;1.00
42841;DHT22;28491;46.898;7.660;2023-08-07T10:22:53;14.20;1.00
42841;DHT22;28491;46.898;7.660;2023-08-07T10:25:24;14.20;1.00
42841;DHT22;28491;46.898;7.660;2023-08-07T10:27:53;14.30;1.00
42841;DHT22;28491;46.898;7.660;2023-08-07T10:30:20;14.40;1.00
42841;DHT22;28491;46.898;7.660;2023-08-07T10:32:47;14.40;1.00
42841;DHT22;28491;46.898;7.660;2023-08-07T10:35:24;14.50;1.00
42841;DHT22;28491;46.898;7.660;2023-08-07T10:37:51;14.50;1.00
42841;DHT22;28491;46.898;7.660;2023-08-07T10:40:17;14.50;1.00
42841;DHT22;28491;46.898;7.660;2023-08-07T10:45:21;14.50;1.00
42841;DHT22;28491;46.898;7.660;2023-08-07T10:48:06;14.50;1.00
42841;DHT22;28491;46.898;7.660;2023-08-07T10:51:18;14.60;1.00
42841;DHT22;28491;46.898;7.660;2023-08-07T10:53:43;14.70;1.00
42841;DHT22;28491;46.898;7.660;2023-08-07T10:56:17;14.90;1.00
42841;DHT22;28491;46.898;7.660;2023-08-07T10:58:49;14.90;1.00
42841;DHT22;28491;46.898;7.660;2023-08-07T11:01:20;14.90;1.00
42841;DHT22;28491;46.898;7.660;2023-08-07T11:03:59;15.10;1.00
42841;DHT22;28491;46.898;7.660;2023-08-07T11:06:36;15.10;1.00
42841;DHT22;28491;46.898;7.660;2023-08-07T11:09:04;15.20;1.00
42841;DHT22;28491;46.898;7.660;2023-08-07T11:11:41;15.20;1.00
42841;DHT22;28491;46.898;7.660;2023-08-07T11:14:07;15.20;1.00
42841;DHT22;28491;46.898;7.660;2023-08-07T11:16:34;15.20;1.00
42841;DHT22;28491;46.898;7.660;2023-08-07T11:19:00;15.20;1.00
42841;DHT22;28491;46.898;7.660;2023-08-07T11:21:26;15.10;1.00
42841;DHT22;28491;46.898;7.660;2023-08-07T11:23:52;15.00;1.00
42841;DHT22;28491;46.898;7.660;2023-08-07T11:26:18;15.00;1.00
42841;DHT22;28491;46.898;7.660;2023-08-07T11:28:47;14.80;1.00
42841;DHT22;28491;46.898;7.660;2023-08-07T11:31:13;14.90;1.00
42841;DHT22;28491;46.898;7.660;2023-08-07T11:33:39;15.00;1.00
42841;DHT22;28491;46.898;7.660;2023-08-07T11:36:15;15.00;1.00
42841;DHT22;28491;46.898;7.660;2023-08-07T11:38:41;15.00;1.00
42841;DHT22;28491;46.898;7.660;2023-08-07T11:41:12;15.10;1.00
42841;DHT22;28491;46.898;7.660;2023-08-07T11:43:38;15.10;1.00
42841;DHT22;28491;46.898;7.660;2023-08-07T11:46:09;15.30;1.00
42841;DHT22;28491;46.898;7.660;2023-08-07T11:48:36;15.30;1.00
42841;DHT22;28491;46.898;7.660;2023-08-07T11:51:03;15.40;1.00
42841;DHT22;28491;46.898;7.660;2023-08-07T11:53:31;15.50;1.00
42841;DHT22;28491;46.898;7.660;2023-08-07T11:55:59;15.40;1.00
42841;DHT22;28491;46.898;7.660;2023-08-07T11:58:26;15.30;1.00
42841;DHT22;28491;46.898;7.660;2023-08-07T12:00:55;15.10;1.00
42841;DHT22;28491;46.898;7.660;2023-08-07T12:03:32;14.80;1.00
42841;DHT22;28491;46.898;7.660;2023-08-07T12:06:02;14.50;1.00
42841;DHT22;28491;46.898;7.660;2023-08-07T12:08:36;14.40;1.00
42841;DHT22;28491;46.898;7.660;2023-08-07T12:11:04;14.30;1.00
42841;DHT22;28491;46.898;7.660;2023-08-07T12:13:30;14.20;1.00
42841;DHT22;28491;46.898;7.660;2023-08-07T12:15:57;14.20;3.10
42841;DHT22;28491;46.898;7.660;2023-08-07T12:18:25;14.30;12.90
42841;DHT22;28491;46.898;7.660;2023-08-07T12:20:52;14.40;12.60
42841;DHT22;28491;46.898;7.660;2023-08-07T12:23:21;14.50;5.80
42841;DHT22;28491;46.898;7.660;2023-08-07T12:25:47;14.70;19.60
42841;DHT22;28491;46.898;7.660;2023-08-07T12:28:13;14.70;17.90
42841;DHT22;28491;46.898;7.660;2023-08-07T12:30:39;14.80;8.50
42841;DHT22;28491;46.898;7.660;2023-08-07T12:33:04;14.90;1.00
42841;DHT22;28491;46.898;7.660;2023-08-07T12:35:31;14.90;1.00
42841;DHT22;28491;46.898;7.660;2023-08-07T12:37:57;14.90;1.00
42841;DHT22;28491;46.898;7.660;2023-08-07T12:40:23;15.00;1.00
42841;DHT22;28491;46.898;7.660;2023-08-07T12:42:49;15.10;1.00
42841;DHT22;28491;46.898;7.660;2023-08-07T12:45:15;15.20;1.00
42841;DHT22;28491;46.898;7.660;2023-08-07T12:47:45;15.40;1.00
42841;DHT22;28491;46.898;7.660;2023-08-07T12:50:11;15.50;1.00
42841;DHT22;28491;46.898;7.660;2023-08-07T12:52:37;15.60;1.00
42841;DHT22;28491;46.898;7.660;2023-08-07T12:55:03;15.60;1.00
42841;DHT22;28491;46.898;7.660;2023-08-07T12:57:31;15.70;1.00
42841;DHT22;28491;46.898;7.660;2023-08-07T12:59:57;15.80;1.00
42841;DHT22;28491;46.898;7.660;2023-08-07T13:02:22;15.80;1.00
42841;DHT22;28491;46.898;7.660;2023-08-07T13:04:48;15.80;1.00
42841;DHT22;28491;46.898;7.660;2023-08-07T13:07:13;15.80;1.00
42841;DHT22;28491;46.898;7.660;2023-08-07T13:09:39;15.80;1.00
42841;DHT22;28491;46.898;7.660;2023-08-07T13:12:04;15.70;1.00
42841;DHT22;28491;46.898;7.660;2023-08-07T13:14:30;15.80;1.00
42841;DHT22;28491;46.898;7.660;2023-08-07T13:16:56;15.80;1.00
42841;DHT22;28491;46.898;7.660;2023-08-07T13:19:21;15.80;1.00
42841;DHT22;28491;46.898;7.660;2023-08-07T13:21:47;15.80;1.00
42841;DHT22;28491;46.898;7.660;2023-08-07T13:24:13;15.70;1.00
42841;DHT22;28491;46.898;7.660;2023-08-07T13:26:38;15.70;1.00
42841;DHT22;28491;46.898;7.660;2023-08-07T13:29:10;15.60;1.00
42841;DHT22;28491;46.898;7.660;2023-08-07T13:31:36;15.60;1.00
42841;DHT22;28491;46.898;7.660;2023-08-07T13:34:01;15.50;1.00
42841;DHT22;28491;46.898;7.660;2023-08-07T13:36:36;15.40;1.00
42841;DHT22;28491;46.898;7.660;2023-08-07T13:39:02;15.30;1.00
42841;DHT22;28491;46.898;7.660;2023-08-07T13:41:27;15.20;3.80
42841;DHT22;28491;46.898;7.660;2023-08-07T13:43:53;15.10;9.60
42841;DHT22;28491;46.898;7.660;2023-08-07T13:46:18;15.00;1.00
42841;DHT22;28491;46.898;7.660;2023-08-07T13:48:45;14.90;2.60
42841;DHT22;28491;46.898;7.660;2023-08-07T13:51:10;14.90;7.40
42841;DHT22;28491;46.898;7.660;2023-08-07T13:53:37;15.00;7.30
42841;DHT22;28491;46.898;7.660;2023-08-07T13:56:03;15.10;8.30
42841;DHT22;28491;46.898;7.660;2023-08-07T13:58:29;15.10;6.60
42841;DHT22;28491;46.898;7.660;2023-08-07T14:00:55;15.30;6.40
42841;DHT22;28491;46.898;7.660;2023-08-07T14:03:21;15.20;1.00
42841;DHT22;28491;46.898;7.660;2023-08-07T14:05:47;15.20;1.00
42841;DHT22;28491;46.898;7.660;2023-08-07T14:08:12;15.30;1.00
42841;DHT22;28491;46.898;7.660;2023-08-07T14:10:38;15.30;1.00
42841;DHT22;28491;46.898;7.660;2023-08-07T14:13:06;15.30;1.00
42841;DHT22;28491;46.898;7.660;2023-08-07T14:15:32;15.40;1.00
42841;DHT22;28491;46.898;7.660;2023-08-07T14:17:57;15.40;1.00
42841;DHT22;28491;46.898;7.660;2023-08-07T14:20:23;15.40;1.00
42841;DHT22;28491;46.898;7.660;2023-08-07T14:22:50;15.40;1.00
42841;DHT22;28491;46.898;7.660;2023-08-07T14:25:15;15.50;1.00
42841;DHT22;28491;46.898;7.660;2023-08-07T14:27:41;15.50;1.00
42841;DHT22;28491;46.898;7.660;2023-08-07T14:30:16;15.60;1.00
42841;DHT22;28491;46.898;7.660;2023-08-07T14:32:41;15.50;1.00
42841;DHT22;28491;46.898;7.660;2023-08-07T14:35:12;15.50;1.00
42841;DHT22;28491;46.898;7.660;2023-08-07T14:37:39;15.40;1.00
42841;DHT22;28491;46.898;7.660;2023-08-07T14:40:05;15.40;1.00
42841;DHT22;28491;46.898;7.660;2023-08-07T14:42:32;15.30;1.00
42841;DHT22;28491;46.898;7.660;2023-08-07T14:44:57;15.30;1.00
42841;DHT22;28491;46.898;7.660;2023-08-07T14:47:23;15.30;1.00
42841;DHT22;28491;46.898;7.660;2023-08-07T14:49:49;15.20;1.00
42841;DHT22;28491;46.898;7.660;2023-08-07T14:52:15;15.10;1.00
42841;DHT22;28491;46.898;7.660;2023-08-07T14:54:40;15.10;1.00
42841;DHT22;28491;46.898;7.660;2023-08-07T14:57:06;15.00;1.00
42841;DHT22;28491;46.898;7.660;2023-08-07T14:59:31;15.00;1.00
42841;DHT22;28491;46.898;7.660;2023-08-07T15:01:57;15.00;1.00
42841;DHT22;28491;46.898;7.660;2023-08-07T15:04:22;15.10;1.00
42841;DHT22;28491;46.898;7.660;2023-08-07T15:06:48;15.10;1.00
42841;DHT22;28491;46.898;7.660;2023-08-07T15:09:15;15.20;1.00
42841;DHT22;28491;46.898;7.660;2023-08-07T15:11:42;15.20;1.00
42841;DHT22;28491;46.898;7.660;2023-08-07T15:14:08;15.20;1.00
42841;DHT22;28491;46.898;7.660;2023-08-07T15:16:33;15.20;1.00
42841;DHT22;28491;46.898;7.660;2023-08-07T15:19:00;15.30;1.00
42841;DHT22;28491;46.898;7.660;2023-08-07T15:21:26;15.40;1.00
42841;DHT22;28491;46.898;7.660;2023-08-07T15:23:52;15.60;1.00
42841;DHT22;28491;46.898;7.660;2023-08-07T15:26:17;15.70;1.00
42841;DHT22;28491;46.898;7.660;2023-08-07T15:28:43;15.80;1.00
42841;DHT22;28491;46.898;7.660;2023-08-07T15:31:08;15.70;1.00
42841;DHT22;28491;46.898;7.660;2023-08-07T15:33:34;15.70;1.00
42841;DHT22;28491;46.898;7.660;2023-08-07T15:35:59;15.70;1.00
42841;DHT22;28491;46.898;7.660;2023-08-07T15:38:26;15.70;1.00